sensor_id;sensor_type;location;lat;lon;timestamp;pressure;altitude;pressure_sealevel;temperature;humidity
12781;BME280;6454;43.304;24.344;2024-02-28T00:01:34;100716.59;;;3.38;75.26
12781;BME280;6454;43.304;24.344;2024-02-28T00:04:00;100679.59;;;3.10;75.58
12781;BME280;6454;43.304;24.344;2024-02-28T00:06:25;100715.22;;;3.35;75.92
12781;BME280;6454;43.304;24.344;2024-02-28T00:08:50;100714.28;;;3.46;76.57
12781;BME280;6454;43.304;24.344;2024-02-28T00:11:18;100721.38;;;3.47;75.29
12781;BME280;6454;43.304;24.344;2024-02-28T00:13:43;100711.38;;;3.31;75.32
12781;BME280;6454;43.304;24.344;2024-02-28T00:16:09;100722.38;;;3.41;75.76
12781;BME280;6454;43.304;24.344;2024-02-28T00:18:34;100725.41;;;3.45;75.72
12781;BME280;6454;43.304;24.344;2024-02-28T00:21:00;100736.72;;;3.37;75.14
12781;BME280;6454;43.304;24.344;2024-02-28T00:23:25;100737.34;;;3.22;76.62
12781;BME280;6454;43.304;24.344;2024-02-28T00:25:50;100732.00;;;3.11;75.72
12781;BME280;6454;43.304;24.344;2024-02-28T00:28:16;100738.72;;;3.25;75.23
12781;BME280;6454;43.304;24.344;2024-02-28T00:30:41;100735.13;;;3.19;75.52
12781;BME280;6454;43.304;24.344;2024-02-28T00:33:06;100741.03;;;3.16;76.29
12781;BME280;6454;43.304;24.344;2024-02-28T00:35:32;100748.63;;;3.14;76.37
12781;BME280;6454;43.304;24.344;2024-02-28T00:37:59;100728.19;;;2.90;76.39
12781;BME280;6454;43.304;24.344;2024-02-28T00:40:24;100745.03;;;2.92;76.68
12781;BME280;6454;43.304;24.344;2024-02-28T00:42:50;100744.00;;;2.93;77.66
12781;BME280;6454;43.304;24.344;2024-02-28T00:45:16;100738.13;;;3.01;76.43
12781;BME280;6454;43.304;24.344;2024-02-28T00:47:41;100740.44;;;2.92;75.59
12781;BME280;6454;43.304;24.344;2024-02-28T00:50:07;100736.75;;;2.98;76.11
12781;BME280;6454;43.304;24.344;2024-02-28T00:52:33;100726.53;;;2.89;76.82
12781;BME280;6454;43.304;24.344;2024-02-28T00:54:58;100740.13;;;2.89;75.81
12781;BME280;6454;43.304;24.344;2024-02-28T00:57:25;100740.94;;;2.89;77.06
12781;BME280;6454;43.304;24.344;2024-02-28T00:59:50;100743.91;;;2.88;75.85
12781;BME280;6454;43.304;24.344;2024-02-28T01:02:16;100734.88;;;2.82;75.54
12781;BME280;6454;43.304;24.344;2024-02-28T01:04:41;100753.78;;;2.77;76.12
12781;BME280;6454;43.304;24.344;2024-02-28T01:07:07;100751.81;;;2.73;76.38
12781;BME280;6454;43.304;24.344;2024-02-28T01:09:32;100755.59;;;2.72;76.46
12781;BME280;6454;43.304;24.344;2024-02-28T01:11:57;100758.91;;;2.74;77.02
12781;BME280;6454;43.304;24.344;2024-02-28T01:14:23;100769.06;;;2.67;76.89
12781;BME280;6454;43.304;24.344;2024-02-28T01:16:49;100768.84;;;2.68;78.23
12781;BME280;6454;43.304;24.344;2024-02-28T01:19:15;100769.91;;;2.67;77.37
12781;BME280;6454;43.304;24.344;2024-02-28T01:21:41;100761.44;;;2.64;77.12
12781;BME280;6454;43.304;24.344;2024-02-28T01:24:07;100766.84;;;2.64;76.32
12781;BME280;6454;43.304;24.344;2024-02-28T01:26:32;100771.97;;;2.60;76.88
12781;BME280;6454;43.304;24.344;2024-02-28T01:28:57;100776.09;;;2.63;77.82
12781;BME280;6454;43.304;24.344;2024-02-28T01:31:23;100768.78;;;2.63;77.18
12781;BME280;6454;43.304;24.344;2024-02-28T01:33:48;100768.59;;;2.70;76.34
12781;BME280;6454;43.304;24.344;2024-02-28T01:36:14;100760.94;;;2.67;77.39
12781;BME280;6454;43.304;24.344;2024-02-28T01:38:39;100777.22;;;2.67;77.03
12781;BME280;6454;43.304;24.344;2024-02-28T01:41:05;100768.09;;;2.56;76.65
12781;BME280;6454;43.304;24.344;2024-02-28T01:43:30;100767.44;;;2.49;77.32
12781;BME280;6454;43.304;24.344;2024-02-28T01:45:56;100775.81;;;2.48;77.80
12781;BME280;6454;43.304;24.344;2024-02-28T01:48:22;100764.47;;;2.51;78.27
12781;BME280;6454;43.304;24.344;2024-02-28T01:50:50;100761.69;;;2.46;76.86
12781;BME280;6454;43.304;24.344;2024-02-28T01:53:16;100756.25;;;2.46;78.20
12781;BME280;6454;43.304;24.344;2024-02-28T01:55:41;100780.94;;;2.61;77.43
12781;BME280;6454;43.304;24.344;2024-02-28T01:58:07;100773.38;;;2.63;79.03
12781;BME280;6454;43.304;24.344;2024-02-28T02:00:32;100778.72;;;2.58;78.35
12781;BME280;6454;43.304;24.344;2024-02-28T02:03:02;100764.97;;;2.48;78.91
12781;BME280;6454;43.304;24.344;2024-02-28T02:05:28;100778.72;;;2.58;81.06
12781;BME280;6454;43.304;24.344;2024-02-28T02:07:54;100777.88;;;2.57;79.66
12781;BME280;6454;43.304;24.344;2024-02-28T02:10:20;100778.88;;;2.51;81.24
12781;BME280;6454;43.304;24.344;2024-02-28T02:12:46;100781.59;;;2.68;79.68
12781;BME280;6454;43.304;24.344;2024-02-28T02:15:11;100769.56;;;2.64;80.88
12781;BME280;6454;43.304;24.344;2024-02-28T02:17:36;100784.38;;;2.73;80.68
12781;BME280;6454;43.304;24.344;2024-02-28T02:20:02;100770.09;;;2.61;79.96
12781;BME280;6454;43.304;24.344;2024-02-28T02:22:37;100794.88;;;2.86;80.71
12781;BME280;6454;43.304;24.344;2024-02-28T02:25:05;100790.97;;;2.93;80.35
12781;BME280;6454;43.304;24.344;2024-02-28T02:27:31;100800.50;;;2.96;79.70
12781;BME280;6454;43.304;24.344;2024-02-28T02:29:57;100805.94;;;2.96;79.45
12781;BME280;6454;43.304;24.344;2024-02-28T02:32:26;100803.78;;;2.98;79.41
12781;BME280;6454;43.304;24.344;2024-02-28T02:34:51;100798.91;;;3.00;79.66
12781;BME280;6454;43.304;24.344;2024-02-28T02:37:17;100797.69;;;2.91;79.22
12781;BME280;6454;43.304;24.344;2024-02-28T02:39:42;100791.28;;;2.80;80.37
12781;BME280;6454;43.304;24.344;2024-02-28T02:42:07;100813.16;;;2.90;79.55
12781;BME280;6454;43.304;24.344;2024-02-28T02:44:33;100798.19;;;2.88;80.06
12781;BME280;6454;43.304;24.344;2024-02-28T02:46:59;100804.75;;;2.92;81.17
12781;BME280;6454;43.304;24.344;2024-02-28T02:49:24;100814.50;;;2.88;81.31
12781;BME280;6454;43.304;24.344;2024-02-28T02:51:50;100805.81;;;2.91;81.58
12781;BME280;6454;43.304;24.344;2024-02-28T02:54:16;100815.19;;;3.00;80.10
12781;BME280;6454;43.304;24.344;2024-02-28T02:56:41;100825.06;;;3.06;79.98
12781;BME280;6454;43.304;24.344;2024-02-28T02:59:08;100825.63;;;3.08;80.58
12781;BME280;6454;43.304;24.344;2024-02-28T03:01:33;100830.91;;;3.15;82.02
12781;BME280;6454;43.304;24.344;2024-02-28T03:03:59;100829.25;;;3.14;80.90
12781;BME280;6454;43.304;24.344;2024-02-28T03:06:24;100830.09;;;3.14;80.97
12781;BME280;6454;43.304;24.344;2024-02-28T03:08:50;100827.59;;;3.13;81.29
12781;BME280;6454;43.304;24.344;2024-02-28T03:11:15;100833.22;;;3.23;82.24
12781;BME280;6454;43.304;24.344;2024-02-28T03:13:40;100825.06;;;3.23;82.51
12781;BME280;6454;43.304;24.344;2024-02-28T03:16:06;100835.78;;;3.34;82.44
12781;BME280;6454;43.304;24.344;2024-02-28T03:18:31;100815.81;;;3.24;82.08
12781;BME280;6454;43.304;24.344;2024-02-28T03:20:57;100833.66;;;3.36;81.53
12781;BME280;6454;43.304;24.344;2024-02-28T03:23:23;100840.50;;;3.39;82.75
12781;BME280;6454;43.304;24.344;2024-02-28T03:25:48;100835.41;;;3.42;82.87
12781;BME280;6454;43.304;24.344;2024-02-28T03:28:13;100813.56;;;3.37;82.82
12781;BME280;6454;43.304;24.344;2024-02-28T03:30:39;100825.91;;;3.45;82.61
12781;BME280;6454;43.304;24.344;2024-02-28T03:33:04;100810.06;;;3.37;81.70
12781;BME280;6454;43.304;24.344;2024-02-28T03:35:30;100829.44;;;3.45;82.83
12781;BME280;6454;43.304;24.344;2024-02-28T03:37:55;100831.53;;;3.38;82.70
12781;BME280;6454;43.304;24.344;2024-02-28T03:40:20;100841.69;;;3.48;83.57
12781;BME280;6454;43.304;24.344;2024-02-28T03:42:46;100837.03;;;3.43;83.73
12781;BME280;6454;43.304;24.344;2024-02-28T03:45:11;100835.19;;;3.49;83.14
12781;BME280;6454;43.304;24.344;2024-02-28T03:47:37;100817.94;;;3.38;82.78
12781;BME280;6454;43.304;24.344;2024-02-28T03:50:04;100842.03;;;3.51;82.40
12781;BME280;6454;43.304;24.344;2024-02-28T03:52:29;100819.97;;;3.48;83.05
12781;BME280;6454;43.304;24.344;2024-02-28T03:54:56;100835.03;;;3.55;82.25
12781;BME280;6454;43.304;24.344;2024-02-28T03:57:22;100841.84;;;3.58;81.95
12781;BME280;6454;43.304;24.344;2024-02-28T03:59:47;100842.25;;;3.67;81.97
12781;BME280;6454;43.304;24.344;2024-02-28T04:02:13;100843.03;;;3.67;81.14
12781;BME280;6454;43.304;24.344;2024-02-28T04:04:38;100849.38;;;3.73;81.49
12781;BME280;6454;43.304;24.344;2024-02-28T04:07:04;100828.84;;;3.60;81.75
12781;BME280;6454;43.304;24.344;2024-02-28T04:09:29;100857.63;;;3.78;82.43
12781;BME280;6454;43.304;24.344;2024-02-28T04:11:54;100851.91;;;3.79;82.78
12781;BME280;6454;43.304;24.344;2024-02-28T04:14:20;100847.38;;;3.85;82.15
12781;BME280;6454;43.304;24.344;2024-02-28T04:16:45;100848.47;;;3.89;82.88
12781;BME280;6454;43.304;24.344;2024-02-28T04:19:11;100835.78;;;3.94;82.57
12781;BME280;6454;43.304;24.344;2024-02-28T04:21:37;100839.19;;;4.06;82.38
12781;BME280;6454;43.304;24.344;2024-02-28T04:24:04;100846.03;;;4.09;82.22
12781;BME280;6454;43.304;24.344;2024-02-28T04:26:29;100833.94;;;4.00;82.08
12781;BME280;6454;43.304;24.344;2024-02-28T04:28:55;100831.88;;;4.07;83.41
12781;BME280;6454;43.304;24.344;2024-02-28T04:31:21;100833.63;;;4.18;83.31
12781;BME280;6454;43.304;24.344;2024-02-28T04:33:47;100801.81;;;3.97;83.13
12781;BME280;6454;43.304;24.344;2024-02-28T04:36:12;100840.63;;;4.14;83.40
12781;BME280;6454;43.304;24.344;2024-02-28T04:38:38;100853.28;;;4.25;83.14
12781;BME280;6454;43.304;24.344;2024-02-28T04:41:03;100840.75;;;4.24;82.89
12781;BME280;6454;43.304;24.344;2024-02-28T04:43:28;100845.47;;;4.34;82.60
12781;BME280;6454;43.304;24.344;2024-02-28T04:45:54;100839.72;;;4.30;83.40
12781;BME280;6454;43.304;24.344;2024-02-28T04:48:19;100851.25;;;4.37;83.41
12781;BME280;6454;43.304;24.344;2024-02-28T04:50:45;100851.53;;;4.41;83.15
12781;BME280;6454;43.304;24.344;2024-02-28T04:53:10;100839.78;;;4.35;83.37
12781;BME280;6454;43.304;24.344;2024-02-28T04:55:36;100855.13;;;4.46;83.18
12781;BME280;6454;43.304;24.344;2024-02-28T04:58:01;100843.06;;;4.37;83.82
12781;BME280;6454;43.304;24.344;2024-02-28T05:00:27;100864.38;;;4.45;83.29
12781;BME280;6454;43.304;24.344;2024-02-28T05:02:53;100848.44;;;4.32;83.32
12781;BME280;6454;43.304;24.344;2024-02-28T05:05:18;100865.72;;;4.43;83.21
12781;BME280;6454;43.304;24.344;2024-02-28T05:07:44;100863.06;;;4.48;83.29
12781;BME280;6454;43.304;24.344;2024-02-28T05:10:09;100866.88;;;4.52;83.32
12781;BME280;6454;43.304;24.344;2024-02-28T05:12:35;100859.53;;;4.52;83.49
12781;BME280;6454;43.304;24.344;2024-02-28T05:15:01;100857.84;;;4.46;83.95
12781;BME280;6454;43.304;24.344;2024-02-28T05:17:26;100869.56;;;4.47;83.84
12781;BME280;6454;43.304;24.344;2024-02-28T05:19:52;100859.22;;;4.49;83.64
12781;BME280;6454;43.304;24.344;2024-02-28T05:22:18;100869.41;;;4.58;83.34
12781;BME280;6454;43.304;24.344;2024-02-28T05:24:46;100880.31;;;4.58;83.73
12781;BME280;6454;43.304;24.344;2024-02-28T05:27:11;100886.09;;;4.67;83.99
12781;BME280;6454;43.304;24.344;2024-02-28T05:29:37;100876.34;;;4.71;83.61
12781;BME280;6454;43.304;24.344;2024-02-28T05:32:03;100874.44;;;4.71;83.93
12781;BME280;6454;43.304;24.344;2024-02-28T05:34:28;100891.69;;;4.82;84.45
12781;BME280;6454;43.304;24.344;2024-02-28T05:36:54;100880.78;;;4.82;84.30
12781;BME280;6454;43.304;24.344;2024-02-28T05:39:19;100888.13;;;4.81;84.76
12781;BME280;6454;43.304;24.344;2024-02-28T05:41:45;100898.56;;;4.90;85.72
12781;BME280;6454;43.304;24.344;2024-02-28T05:44:11;100885.91;;;4.78;86.17
12781;BME280;6454;43.304;24.344;2024-02-28T05:46:36;100884.66;;;4.86;85.13
12781;BME280;6454;43.304;24.344;2024-02-28T05:49:03;100888.81;;;4.94;85.69
12781;BME280;6454;43.304;24.344;2024-02-28T05:51:28;100878.03;;;4.77;86.56
12781;BME280;6454;43.304;24.344;2024-02-28T05:53:55;100889.84;;;4.88;86.21
12781;BME280;6454;43.304;24.344;2024-02-28T05:56:20;100900.16;;;4.86;86.01
12781;BME280;6454;43.304;24.344;2024-02-28T05:58:47;100896.16;;;4.66;86.54
12781;BME280;6454;43.304;24.344;2024-02-28T06:01:17;100897.78;;;4.67;86.35
12781;BME280;6454;43.304;24.344;2024-02-28T06:03:42;100896.22;;;4.71;86.59
12781;BME280;6454;43.304;24.344;2024-02-28T06:06:10;100900.41;;;4.84;85.99
12781;BME280;6454;43.304;24.344;2024-02-28T06:08:38;100905.69;;;4.96;86.06
12781;BME280;6454;43.304;24.344;2024-02-28T06:11:03;100910.16;;;5.07;86.43
12781;BME280;6454;43.304;24.344;2024-02-28T06:13:29;100908.34;;;5.17;84.99
12781;BME280;6454;43.304;24.344;2024-02-28T06:15:55;100917.59;;;5.16;85.03
12781;BME280;6454;43.304;24.344;2024-02-28T06:18:21;100928.22;;;5.18;85.72
12781;BME280;6454;43.304;24.344;2024-02-28T06:20:48;100932.25;;;5.10;86.25
12781;BME280;6454;43.304;24.344;2024-02-28T06:23:14;100929.19;;;5.02;86.55
12781;BME280;6454;43.304;24.344;2024-02-28T06:25:40;100926.28;;;5.13;85.59
12781;BME280;6454;43.304;24.344;2024-02-28T06:28:05;100926.50;;;5.07;86.37
12781;BME280;6454;43.304;24.344;2024-02-28T06:30:34;100918.25;;;4.97;86.55
12781;BME280;6454;43.304;24.344;2024-02-28T06:33:00;100934.19;;;5.15;86.24
12781;BME280;6454;43.304;24.344;2024-02-28T06:35:25;100939.41;;;5.16;86.20
12781;BME280;6454;43.304;24.344;2024-02-28T06:37:51;100937.47;;;5.17;86.17
12781;BME280;6454;43.304;24.344;2024-02-28T06:40:16;100946.78;;;5.21;86.54
12781;BME280;6454;43.304;24.344;2024-02-28T06:42:42;100946.50;;;5.22;87.01
12781;BME280;6454;43.304;24.344;2024-02-28T06:45:08;100927.25;;;5.29;85.27
12781;BME280;6454;43.304;24.344;2024-02-28T06:47:34;100919.00;;;5.19;85.89
12781;BME280;6454;43.304;24.344;2024-02-28T06:49:59;100944.69;;;5.33;86.21
12781;BME280;6454;43.304;24.344;2024-02-28T06:52:25;100949.16;;;5.44;86.24
12781;BME280;6454;43.304;24.344;2024-02-28T06:54:50;100942.34;;;5.47;85.24
12781;BME280;6454;43.304;24.344;2024-02-28T06:57:16;100953.94;;;5.64;85.00
12781;BME280;6454;43.304;24.344;2024-02-28T06:59:42;100954.81;;;5.74;84.61
12781;BME280;6454;43.304;24.344;2024-02-28T07:02:08;100962.03;;;5.85;83.75
12781;BME280;6454;43.304;24.344;2024-02-28T07:04:33;100951.34;;;5.84;83.96
12781;BME280;6454;43.304;24.344;2024-02-28T07:06:59;100948.16;;;5.92;83.24
12781;BME280;6454;43.304;24.344;2024-02-28T07:09:24;100943.25;;;5.94;83.74
12781;BME280;6454;43.304;24.344;2024-02-28T07:11:56;100965.47;;;6.13;82.86
12781;BME280;6454;43.304;24.344;2024-02-28T07:14:21;100952.94;;;6.17;82.55
12781;BME280;6454;43.304;24.344;2024-02-28T07:16:47;100948.78;;;6.09;83.35
12781;BME280;6454;43.304;24.344;2024-02-28T07:19:12;100945.59;;;6.22;83.61
12781;BME280;6454;43.304;24.344;2024-02-28T07:21:37;100959.00;;;6.34;83.76
12781;BME280;6454;43.304;24.344;2024-02-28T07:24:03;100963.38;;;6.30;82.95
12781;BME280;6454;43.304;24.344;2024-02-28T07:26:30;100964.75;;;6.37;82.91
12781;BME280;6454;43.304;24.344;2024-02-28T07:28:55;100959.06;;;6.44;83.29
12781;BME280;6454;43.304;24.344;2024-02-28T07:31:21;100951.09;;;6.32;83.85
12781;BME280;6454;43.304;24.344;2024-02-28T07:33:47;100948.09;;;6.34;83.32
12781;BME280;6454;43.304;24.344;2024-02-28T07:36:13;100948.94;;;6.44;82.04
12781;BME280;6454;43.304;24.344;2024-02-28T07:38:41;100956.91;;;6.51;82.98
12781;BME280;6454;43.304;24.344;2024-02-28T07:41:06;100959.63;;;6.56;82.53
12781;BME280;6454;43.304;24.344;2024-02-28T07:43:32;100947.34;;;6.58;82.85
12781;BME280;6454;43.304;24.344;2024-02-28T07:46:02;100939.44;;;6.57;83.20
12781;BME280;6454;43.304;24.344;2024-02-28T07:48:28;100938.63;;;6.67;82.03
12781;BME280;6454;43.304;24.344;2024-02-28T07:50:53;100948.78;;;6.81;82.08
12781;BME280;6454;43.304;24.344;2024-02-28T07:53:19;100935.69;;;6.78;81.97
12781;BME280;6454;43.304;24.344;2024-02-28T07:55:44;100936.81;;;6.87;82.58
12781;BME280;6454;43.304;24.344;2024-02-28T07:58:10;100937.34;;;6.94;82.02
12781;BME280;6454;43.304;24.344;2024-02-28T08:00:35;100940.91;;;6.95;81.20
12781;BME280;6454;43.304;24.344;2024-02-28T08:03:01;100947.72;;;6.97;81.04
12781;BME280;6454;43.304;24.344;2024-02-28T08:05:27;100939.25;;;6.99;80.96
12781;BME280;6454;43.304;24.344;2024-02-28T08:07:53;100925.88;;;7.07;81.36
12781;BME280;6454;43.304;24.344;2024-02-28T08:10:18;100928.06;;;7.15;80.35
12781;BME280;6454;43.304;24.344;2024-02-28T08:12:44;100932.44;;;7.16;82.16
12781;BME280;6454;43.304;24.344;2024-02-28T08:15:10;100941.19;;;7.24;81.00
12781;BME280;6454;43.304;24.344;2024-02-28T08:17:35;100930.81;;;7.20;79.88
12781;BME280;6454;43.304;24.344;2024-02-28T08:20:03;100945.56;;;7.30;80.33
12781;BME280;6454;43.304;24.344;2024-02-28T08:22:30;100922.06;;;7.29;81.49
12781;BME280;6454;43.304;24.344;2024-02-28T08:24:55;100936.81;;;7.38;81.79
12781;BME280;6454;43.304;24.344;2024-02-28T08:27:21;100921.25;;;7.38;79.90
12781;BME280;6454;43.304;24.344;2024-02-28T08:29:49;100931.91;;;7.50;80.33
12781;BME280;6454;43.304;24.344;2024-02-28T08:32:14;100926.44;;;7.55;78.96
12781;BME280;6454;43.304;24.344;2024-02-28T08:34:44;100928.06;;;7.61;80.12
12781;BME280;6454;43.304;24.344;2024-02-28T08:37:10;100920.41;;;7.58;79.99
12781;BME280;6454;43.304;24.344;2024-02-28T08:39:36;100927.50;;;7.59;79.39
12781;BME280;6454;43.304;24.344;2024-02-28T08:42:01;100937.34;;;7.70;80.30
12781;BME280;6454;43.304;24.344;2024-02-28T08:44:27;100929.13;;;7.75;80.41
12781;BME280;6454;43.304;24.344;2024-02-28T08:46:52;100919.84;;;7.71;78.40
12781;BME280;6454;43.304;24.344;2024-02-28T08:49:17;100927.50;;;7.79;79.48
12781;BME280;6454;43.304;24.344;2024-02-28T08:51:43;100927.50;;;7.74;80.00
12781;BME280;6454;43.304;24.344;2024-02-28T08:54:08;100927.50;;;7.79;79.96
12781;BME280;6454;43.304;24.344;2024-02-28T08:56:34;100930.22;;;7.84;79.93
12781;BME280;6454;43.304;24.344;2024-02-28T08:58:59;100939.50;;;7.93;79.46
12781;BME280;6454;43.304;24.344;2024-02-28T09:01:25;100933.78;;;7.79;79.43
12781;BME280;6454;43.304;24.344;2024-02-28T09:03:50;100922.81;;;7.90;79.55
12781;BME280;6454;43.304;24.344;2024-02-28T09:06:16;100934.84;;;7.99;81.48
12781;BME280;6454;43.304;24.344;2024-02-28T09:08:41;100934.00;;;8.03;81.08
12781;BME280;6454;43.304;24.344;2024-02-28T09:11:07;100937.81;;;8.02;80.19
12781;BME280;6454;43.304;24.344;2024-02-28T09:13:33;100940.53;;;8.17;81.65
12781;BME280;6454;43.304;24.344;2024-02-28T09:16:01;100926.81;;;8.22;79.99
12781;BME280;6454;43.304;24.344;2024-02-28T09:18:26;100945.13;;;8.42;78.49
12781;BME280;6454;43.304;24.344;2024-02-28T09:20:52;100939.63;;;8.47;79.31
12781;BME280;6454;43.304;24.344;2024-02-28T09:23:18;100949.72;;;8.52;78.29
12781;BME280;6454;43.304;24.344;2024-02-28T09:25:43;100949.97;;;8.60;77.96
12781;BME280;6454;43.304;24.344;2024-02-28T09:28:09;100950.78;;;8.61;77.55
12781;BME280;6454;43.304;24.344;2024-02-28T09:30:38;100938.50;;;8.53;78.21
12781;BME280;6454;43.304;24.344;2024-02-28T09:33:03;100935.69;;;8.63;78.92
12781;BME280;6454;43.304;24.344;2024-02-28T09:35:29;100912.16;;;8.57;77.48
12781;BME280;6454;43.304;24.344;2024-02-28T09:37:54;100940.25;;;8.78;76.95
12781;BME280;6454;43.304;24.344;2024-02-28T09:40:20;100936.47;;;8.74;78.68
12781;BME280;6454;43.304;24.344;2024-02-28T09:43:00;100942.41;;;8.91;77.64
12781;BME280;6454;43.304;24.344;2024-02-28T09:45:26;100944.81;;;8.97;78.30
12781;BME280;6454;43.304;24.344;2024-02-28T09:47:55;100938.44;;;9.07;77.97
12781;BME280;6454;43.304;24.344;2024-02-28T09:50:20;100928.88;;;9.05;76.63
12781;BME280;6454;43.304;24.344;2024-02-28T09:52:46;100923.03;;;9.11;76.27
12781;BME280;6454;43.304;24.344;2024-02-28T09:55:13;100930.44;;;9.16;76.68
12781;BME280;6454;43.304;24.344;2024-02-28T09:57:38;100928.44;;;9.26;77.56
12781;BME280;6454;43.304;24.344;2024-02-28T10:00:05;100938.22;;;9.37;76.36
12781;BME280;6454;43.304;24.344;2024-02-28T10:02:32;100919.53;;;9.39;76.06
12781;BME280;6454;43.304;24.344;2024-02-28T10:04:59;100927.41;;;9.46;76.04
12781;BME280;6454;43.304;24.344;2024-02-28T10:07:26;100910.06;;;9.55;76.47
12781;BME280;6454;43.304;24.344;2024-02-28T10:09:52;100907.03;;;9.57;75.10
12781;BME280;6454;43.304;24.344;2024-02-28T10:12:17;100900.13;;;9.59;75.88
12781;BME280;6454;43.304;24.344;2024-02-28T10:14:44;100898.41;;;9.69;75.53
12781;BME280;6454;43.304;24.344;2024-02-28T10:17:09;100895.84;;;9.77;75.10
12781;BME280;6454;43.304;24.344;2024-02-28T10:19:35;100899.38;;;9.83;75.13
12781;BME280;6454;43.304;24.344;2024-02-28T10:22:01;100899.38;;;9.83;74.67
12781;BME280;6454;43.304;24.344;2024-02-28T10:24:26;100893.81;;;9.88;75.11
12781;BME280;6454;43.304;24.344;2024-02-28T10:26:52;100889.31;;;9.97;74.79
12781;BME280;6454;43.304;24.344;2024-02-28T10:29:21;100878.03;;;9.98;73.91
12781;BME280;6454;43.304;24.344;2024-02-28T10:31:47;100888.63;;;10.10;74.13
12781;BME280;6454;43.304;24.344;2024-02-28T10:34:14;100878.13;;;10.17;74.70
12781;BME280;6454;43.304;24.344;2024-02-28T10:36:41;100859.81;;;10.31;73.89
12781;BME280;6454;43.304;24.344;2024-02-28T10:39:09;100870.59;;;10.46;73.17
12781;BME280;6454;43.304;24.344;2024-02-28T10:41:37;100867.13;;;10.59;72.34
12781;BME280;6454;43.304;24.344;2024-02-28T10:44:03;100860.38;;;10.70;72.83
12781;BME280;6454;43.304;24.344;2024-02-28T10:46:29;100851.59;;;10.68;73.41
12781;BME280;6454;43.304;24.344;2024-02-28T10:48:55;100855.47;;;10.67;72.97
12781;BME280;6454;43.304;24.344;2024-02-28T10:51:25;100847.22;;;10.67;72.59
12781;BME280;6454;43.304;24.344;2024-02-28T10:54:12;100848.09;;;10.82;72.52
12781;BME280;6454;43.304;24.344;2024-02-28T10:56:41;100845.28;;;10.87;71.66
12781;BME280;6454;43.304;24.344;2024-02-28T10:59:08;100833.22;;;10.83;72.15
12781;BME280;6454;43.304;24.344;2024-02-28T11:01:43;100842.59;;;10.82;72.04
12781;BME280;6454;43.304;24.344;2024-02-28T11:04:14;100825.47;;;10.85;73.47
12781;BME280;6454;43.304;24.344;2024-02-28T11:06:55;100827.28;;;10.94;72.26
12781;BME280;6454;43.304;24.344;2024-02-28T11:09:25;100830.44;;;11.01;73.12
12781;BME280;6454;43.304;24.344;2024-02-28T11:11:54;100818.28;;;11.21;72.19
12781;BME280;6454;43.304;24.344;2024-02-28T11:14:21;100808.38;;;11.20;72.15
12781;BME280;6454;43.304;24.344;2024-02-28T11:16:48;100813.50;;;11.26;70.79
12781;BME280;6454;43.304;24.344;2024-02-28T11:19:22;100820.75;;;11.36;69.66
12781;BME280;6454;43.304;24.344;2024-02-28T11:21:54;100800.69;;;11.35;70.14
12781;BME280;6454;43.304;24.344;2024-02-28T11:24:30;100801.00;;;11.48;70.64
12781;BME280;6454;43.304;24.344;2024-02-28T11:26:56;100804.47;;;11.53;69.54
12781;BME280;6454;43.304;24.344;2024-02-28T11:29:24;100800.41;;;11.64;68.57
12781;BME280;6454;43.304;24.344;2024-02-28T11:31:50;100809.31;;;11.75;69.38
12781;BME280;6454;43.304;24.344;2024-02-28T11:34:15;100814.31;;;11.86;69.85
12781;BME280;6454;43.304;24.344;2024-02-28T11:36:41;100797.19;;;11.89;68.07
12781;BME280;6454;43.304;24.344;2024-02-28T11:39:07;100788.19;;;11.98;66.93
12781;BME280;6454;43.304;24.344;2024-02-28T11:41:33;100797.16;;;12.03;67.13
12781;BME280;6454;43.304;24.344;2024-02-28T11:43:58;100794.50;;;12.12;67.22
12781;BME280;6454;43.304;24.344;2024-02-28T11:46:24;100780.81;;;12.07;67.25
12781;BME280;6454;43.304;24.344;2024-02-28T11:48:49;100784.47;;;12.16;67.57
12781;BME280;6454;43.304;24.344;2024-02-28T11:51:15;100784.91;;;12.23;65.25
12781;BME280;6454;43.304;24.344;2024-02-28T11:53:40;100782.03;;;12.28;67.01
12781;BME280;6454;43.304;24.344;2024-02-28T11:56:06;100773.19;;;12.39;66.07
12781;BME280;6454;43.304;24.344;2024-02-28T11:58:33;100777.66;;;12.49;66.39
12781;BME280;6454;43.304;24.344;2024-02-28T12:00:58;100766.16;;;12.47;66.78
12781;BME280;6454;43.304;24.344;2024-02-28T12:03:24;100772.22;;;12.58;65.90
12781;BME280;6454;43.304;24.344;2024-02-28T12:05:51;100749.97;;;12.54;66.14
12781;BME280;6454;43.304;24.344;2024-02-28T12:08:18;100764.72;;;12.72;65.59
12781;BME280;6454;43.304;24.344;2024-02-28T12:10:44;100764.47;;;12.82;65.82
12781;BME280;6454;43.304;24.344;2024-02-28T12:13:10;100762.59;;;12.91;65.74
12781;BME280;6454;43.304;24.344;2024-02-28T12:15:39;100730.28;;;12.91;65.48
12781;BME280;6454;43.304;24.344;2024-02-28T12:18:09;100757.38;;;13.11;64.53
12781;BME280;6454;43.304;24.344;2024-02-28T12:20:35;100741.94;;;13.10;65.88
12781;BME280;6454;43.304;24.344;2024-02-28T12:23:03;100758.34;;;13.16;64.84
12781;BME280;6454;43.304;24.344;2024-02-28T12:25:29;100754.19;;;13.27;64.14
12781;BME280;6454;43.304;24.344;2024-02-28T12:27:54;100749.34;;;13.32;64.47
12781;BME280;6454;43.304;24.344;2024-02-28T12:30:20;100751.66;;;13.39;63.51
12781;BME280;6454;43.304;24.344;2024-02-28T12:32:45;100747.78;;;13.48;64.44
12781;BME280;6454;43.304;24.344;2024-02-28T12:35:11;100733.69;;;13.50;63.50
12781;BME280;6454;43.304;24.344;2024-02-28T12:37:36;100721.63;;;13.46;62.97
12781;BME280;6454;43.304;24.344;2024-02-28T12:40:03;100739.56;;;13.57;62.92
12781;BME280;6454;43.304;24.344;2024-02-28T12:42:30;100740.69;;;13.56;62.83
12781;BME280;6454;43.304;24.344;2024-02-28T12:44:56;100744.78;;;13.58;62.57
12781;BME280;6454;43.304;24.344;2024-02-28T12:47:21;100732.91;;;13.58;61.81
12781;BME280;6454;43.304;24.344;2024-02-28T12:49:47;100714.41;;;13.58;62.89
12781;BME280;6454;43.304;24.344;2024-02-28T12:52:12;100710.50;;;13.68;62.13